FDX37 KSAN-KSFO
Flight info
| Callsign | FDX37 |
|---|---|
| Flight time | N/A |
| Altitude | 38000 |
| Route | PADRZ2 IKAYE RIZIN SPLNT STOKD SERFR SERFR4 |
| Aircraft | B738/M-SDE2E3FGHIRWXY/LB1 |
Departure
| Time | 2026-04-23 14:41 |
|---|---|
| Airport | San Diego International Airport (KSAN) |
Arrival
| Time | N/A |
|---|---|
| Airport | San Francisco International Airport (KSFO) |
| Time | Latitude | Longitude | Altitude | Speed | Heading |
|---|---|---|---|---|---|
| 2026-04-23 14:22 | 32.73502 | -117.18771 | 21 ft | 0 kts | 15° |
| 2026-04-23 14:31 | 32.73484 | -117.18777 | 21 ft | 4 kts | 21° |
| 2026-04-23 14:31 | 32.73460 | -117.18791 | 22 ft | 4 kts | 34° |
| 2026-04-23 14:31 | 32.73441 | -117.18812 | 23 ft | 4 kts | 64° |
| 2026-04-23 14:31 | 32.73438 | -117.18833 | 24 ft | 1 kts | 105° |
| 2026-04-23 14:32 | 32.73439 | -117.18837 | 24 ft | 0 kts | 105° |
| 2026-04-23 14:35 | 32.73437 | -117.18828 | 24 ft | 3 kts | 105° |
| 2026-04-23 14:35 | 32.73426 | -117.18782 | 21 ft | 9 kts | 105° |
| 2026-04-23 14:35 | 32.73405 | -117.18698 | 21 ft | 12 kts | 106° |
| 2026-04-23 14:36 | 32.73382 | -117.18603 | 23 ft | 12 kts | 106° |
| 2026-04-23 14:36 | 32.73360 | -117.18511 | 25 ft | 11 kts | 106° |
| 2026-04-23 14:36 | 32.73338 | -117.18422 | 26 ft | 11 kts | 105° |
| 2026-04-23 14:36 | 32.73317 | -117.18334 | 23 ft | 11 kts | 106° |
| 2026-04-23 14:37 | 32.73296 | -117.18247 | 22 ft | 11 kts | 106° |
| 2026-04-23 14:37 | 32.73275 | -117.18163 | 22 ft | 10 kts | 106° |
| 2026-04-23 14:37 | 32.73256 | -117.18081 | 23 ft | 10 kts | 105° |
| 2026-04-23 14:37 | 32.73236 | -117.17999 | 21 ft | 11 kts | 106° |
| 2026-04-23 14:38 | 32.73215 | -117.17912 | 22 ft | 11 kts | 107° |
| 2026-04-23 14:38 | 32.73194 | -117.17827 | 22 ft | 11 kts | 105° |
| 2026-04-23 14:38 | 32.73174 | -117.17744 | 22 ft | 10 kts | 106° |
| 2026-04-23 14:38 | 32.73155 | -117.17664 | 24 ft | 10 kts | 106° |
| 2026-04-23 14:39 | 32.73131 | -117.17585 | 22 ft | 10 kts | 129° |
| 2026-04-23 14:39 | 32.73076 | -117.17538 | 21 ft | 9 kts | 149° |
| 2026-04-23 14:39 | 32.73026 | -117.17538 | 22 ft | 7 kts | 221° |
| 2026-04-23 14:39 | 32.73022 | -117.17593 | 21 ft | 7 kts | 284° |
| 2026-04-23 14:40 | 32.73041 | -117.17669 | 20 ft | 16 kts | 287° |
| 2026-04-23 14:40 | 32.73112 | -117.17961 | 18 ft | 70 kts | 284° |
| 2026-04-23 14:40 | 32.73309 | -117.18793 | 24 ft | 136 kts | 286° |
| 2026-04-23 14:40 | 32.73621 | -117.20042 | 272 ft | 167 kts | 286° |
| 2026-04-23 14:41 | 32.73955 | -117.21350 | 1043 ft | 171 kts | 292° |
| 2026-04-23 14:41 | 32.74573 | -117.22524 | 1899 ft | 164 kts | 307° |
| 2026-04-23 14:41 | 32.75270 | -117.23652 | 2487 ft | 180 kts | 304° |
| 2026-04-23 14:41 | 32.76018 | -117.24950 | 2996 ft | 195 kts | 304° |
| 2026-04-23 14:42 | 32.76762 | -117.26267 | 3722 ft | 195 kts | 305° |
| 2026-04-23 14:42 | 32.77541 | -117.27629 | 4223 ft | 207 kts | 306° |
| 2026-04-23 14:42 | 32.78407 | -117.29103 | 4576 ft | 222 kts | 306° |
| 2026-04-23 14:42 | 32.79299 | -117.30646 | 5033 ft | 240 kts | 305° |
| 2026-04-23 14:43 | 32.80270 | -117.32358 | 5467 ft | 256 kts | 306° |
| 2026-04-23 14:43 | 32.81354 | -117.34074 | 6214 ft | 262 kts | 308° |
| 2026-04-23 14:43 | 32.82474 | -117.35793 | 6991 ft | 264 kts | 308° |
| 2026-04-23 14:43 | 32.83601 | -117.37521 | 7789 ft | 265 kts | 307° |
| 2026-04-23 14:44 | 32.84729 | -117.39254 | 8612 ft | 266 kts | 307° |
| 2026-04-23 14:44 | 32.85860 | -117.41000 | 9420 ft | 267 kts | 306° |
| 2026-04-23 14:44 | 32.86997 | -117.42756 | 10188 ft | 269 kts | 306° |
| 2026-04-23 14:44 | 32.88160 | -117.44559 | 10473 ft | 290 kts | 306° |
| 2026-04-23 14:45 | 32.89010 | -117.45879 | 10583 ft | 305 kts | 306° |
| 2026-04-23 14:45 | 32.90787 | -117.48642 | 11028 ft | 325 kts | 306° |
| 2026-04-23 14:45 | 32.92172 | -117.50793 | 11669 ft | 329 kts | 306° |
| 2026-04-23 14:45 | 32.93563 | -117.52957 | 12419 ft | 330 kts | 305° |
| 2026-04-23 14:46 | 32.94962 | -117.55135 | 13152 ft | 333 kts | 305° |
| 2026-04-23 14:46 | 32.95895 | -117.56590 | 13636 ft | 335 kts | 304° |